createdAt,value
2022-12-05T00:02:01.042Z,98.13
2022-12-05T00:04:29.414Z,87.33
2022-12-05T00:06:57.586Z,90.13
2022-12-05T00:09:25.754Z,88.10
2022-12-05T00:11:54.083Z,83.37
2022-12-05T00:14:22.228Z,79.40
2022-12-05T00:16:51.827Z,83.67
2022-12-05T00:19:20.049Z,80.73
2022-12-05T00:21:48.168Z,74.90
2022-12-05T00:24:17.589Z,80.07
2022-12-05T00:26:45.944Z,77.47
2022-12-05T00:29:14.444Z,80.67
2022-12-05T00:31:42.978Z,81.53
2022-12-05T00:34:12.518Z,76.07
2022-12-05T00:36:41.519Z,80.93
2022-12-05T00:39:14.235Z,87.33
2022-12-05T00:41:44.101Z,84.50
2022-12-05T00:44:13.990Z,81.47
2022-12-05T00:46:42.420Z,74.40
2022-12-05T00:49:13.026Z,80.17
2022-12-05T00:51:43.490Z,83.27
2022-12-05T00:54:16.414Z,84.43
2022-12-05T00:56:45.753Z,79.03
2022-12-05T00:59:17.977Z,83.83
2022-12-05T01:01:48.744Z,88.13
2022-12-05T01:04:21.498Z,84.40
2022-12-05T01:06:51.318Z,89.93
2022-12-05T01:09:21.726Z,88.60
2022-12-05T01:11:52.454Z,88.97
2022-12-05T01:14:24.237Z,94.70
2022-12-05T01:16:55.482Z,85.43
2022-12-05T01:19:28.861Z,89.20
2022-12-05T01:21:57.775Z,83.50
2022-12-05T01:24:28.465Z,88.03
2022-12-05T01:26:56.986Z,90.97
2022-12-05T01:29:26.747Z,93.77
2022-12-05T01:31:55.726Z,90.50
2022-12-05T01:34:25.284Z,85.57
2022-12-05T01:36:53.545Z,87.90
2022-12-05T01:39:21.695Z,87.97
2022-12-05T01:41:51.251Z,89.47
2022-12-05T01:45:01.489Z,86.97
2022-12-05T01:47:33.682Z,82.37
2022-12-05T01:50:04.422Z,82.23
2022-12-05T01:52:35.242Z,82.20
2022-12-05T01:55:13.179Z,83.83
2022-12-05T01:57:42.631Z,80.27
2022-12-05T02:00:15.833Z,84.13
2022-12-05T02:02:52.726Z,85.73
2022-12-05T02:05:28.537Z,82.27
2022-12-05T02:07:58.344Z,81.13
2022-12-05T02:10:29.285Z,86.30
2022-12-05T02:13:14.898Z,86.57
2022-12-05T02:15:56.827Z,74.47
2022-12-05T02:18:42.525Z,83.20
2022-12-05T02:21:55.617Z,83.37
2022-12-05T02:24:56.729Z,70.33
2022-12-05T02:27:52.144Z,71.97
2022-12-05T02:30:23.854Z,74.13
2022-12-05T02:33:16.253Z,81.57
2022-12-05T02:35:58.699Z,69.27
2022-12-05T02:38:35.027Z,72.07
2022-12-05T02:41:16.066Z,68.57
2022-12-05T02:43:53.328Z,79.50
2022-12-05T02:46:27.190Z,70.60
2022-12-05T02:49:01.294Z,70.57
2022-12-05T02:51:36.366Z,73.13
2022-12-05T02:54:11.516Z,67.97
2022-12-05T02:56:43.578Z,67.80
2022-12-05T02:59:11.993Z,70.20
2022-12-05T03:01:41.835Z,72.43
2022-12-05T03:04:15.022Z,74.47
2022-12-05T03:06:47.952Z,62.87
2022-12-05T03:09:23.141Z,65.07
2022-12-05T03:11:57.874Z,71.80
2022-12-05T03:14:34.387Z,67.40
2022-12-05T03:17:11.623Z,65.27
2022-12-05T03:19:50.980Z,71.50
2022-12-05T03:22:30.917Z,63.60
2022-12-05T03:24:59.798Z,64.00
2022-12-05T03:27:38.300Z,66.53
2022-12-05T03:30:11.764Z,66.80
2022-12-05T03:32:49.325Z,65.80
2022-12-05T03:35:26.734Z,66.03
2022-12-05T03:38:02.299Z,59.23
2022-12-05T03:40:42.275Z,57.70
2022-12-05T03:43:15.135Z,55.33
2022-12-05T03:45:50.066Z,61.27
2022-12-05T03:48:31.385Z,59.57
2022-12-05T03:51:02.860Z,55.03
2022-12-05T03:53:38.219Z,65.70
2022-12-05T03:56:11.550Z,55.53
2022-12-05T03:58:46.198Z,66.17
2022-12-05T04:01:19.048Z,55.13
2022-12-05T04:03:54.191Z,62.33
2022-12-05T04:06:30.090Z,61.83
2022-12-05T04:09:02.980Z,57.37
2022-12-05T04:11:35.702Z,65.47
2022-12-05T04:14:12.586Z,61.07
2022-12-05T04:17:05.431Z,58.07
2022-12-05T04:20:00.333Z,52.03
2022-12-05T04:22:29.488Z,54.33
2022-12-05T04:25:18.062Z,57.67
2022-12-05T04:27:59.414Z,59.03
2022-12-05T04:30:36.839Z,57.10
2022-12-05T04:33:13.352Z,56.90
2022-12-05T04:35:51.801Z,62.57
2022-12-05T04:38:26.390Z,63.03
2022-12-05T04:41:01.657Z,62.50
2022-12-05T04:43:35.940Z,63.13
2022-12-05T04:46:08.294Z,58.03
2022-12-05T04:48:42.230Z,58.57
2022-12-05T04:51:18.612Z,55.17
2022-12-05T04:53:51.256Z,56.10
2022-12-05T04:56:23.491Z,58.57
2022-12-05T04:58:51.742Z,53.70
2022-12-05T05:01:26.611Z,62.57
2022-12-05T05:04:03.001Z,60.70
2022-12-05T05:06:32.701Z,59.53
2022-12-05T05:09:00.806Z,58.03
2022-12-05T05:11:31.530Z,56.03
2022-12-05T05:14:00.181Z,61.73
2022-12-05T05:16:36.920Z,61.87
2022-12-05T05:19:06.383Z,57.47
2022-12-05T05:21:39.085Z,47.77
2022-12-05T05:24:09.710Z,53.77
2022-12-05T05:26:40.581Z,59.77
2022-12-05T05:29:10.148Z,56.93
2022-12-05T05:31:40.546Z,61.70
2022-12-05T05:34:10.239Z,59.60
2022-12-05T05:36:40.479Z,61.20
2022-12-05T05:39:14.971Z,61.30
2022-12-05T05:41:44.048Z,55.37
2022-12-05T05:44:12.152Z,57.13
2022-12-05T05:46:40.392Z,56.73
2022-12-05T05:49:08.578Z,52.30
2022-12-05T05:51:36.706Z,51.77
2022-12-05T05:54:06.326Z,53.93
2022-12-05T05:56:34.500Z,51.10
2022-12-05T05:59:04.838Z,51.20
2022-12-05T06:01:33.308Z,53.07
2022-12-05T06:04:01.516Z,52.57
2022-12-05T06:06:29.909Z,57.87
2022-12-05T06:08:58.203Z,53.20
2022-12-05T06:11:29.444Z,55.80
2022-12-05T06:14:00.963Z,52.83
2022-12-05T06:16:30.182Z,55.10
2022-12-05T06:18:58.941Z,56.13
2022-12-05T06:21:27.838Z,60.30
2022-12-05T06:23:56.206Z,49.50
2022-12-05T06:26:24.984Z,59.23
2022-12-05T06:28:55.399Z,59.20
2022-12-05T06:31:27.132Z,59.50
2022-12-05T06:33:55.400Z,55.73
2022-12-05T06:36:24.083Z,56.30
2022-12-05T06:38:52.152Z,59.80
2022-12-05T06:41:22.036Z,55.83
2022-12-05T06:43:50.185Z,57.33
2022-12-05T06:46:19.750Z,57.27
2022-12-05T06:48:47.982Z,59.37
2022-12-05T06:51:17.935Z,55.57
2022-12-05T06:53:46.465Z,48.80
2022-12-05T06:56:20.593Z,61.77
2022-12-05T06:58:52.410Z,54.77
2022-12-05T07:01:40.985Z,57.47
2022-12-05T07:04:15.454Z,55.60
2022-12-05T07:06:50.288Z,52.87
2022-12-05T07:09:21.482Z,59.60
2022-12-05T07:11:50.216Z,55.27
2022-12-05T07:14:45.906Z,54.37
2022-12-05T07:17:08.451Z,58.27
2022-12-05T07:19:37.034Z,62.30
2022-12-05T07:22:07.399Z,58.97
2022-12-05T07:24:37.629Z,60.30
2022-12-05T07:27:06.246Z,61.70
2022-12-05T07:29:34.460Z,64.33
2022-12-05T07:32:02.887Z,63.87
2022-12-05T07:34:32.588Z,69.83
2022-12-05T07:37:01.689Z,72.60
2022-12-05T07:39:29.995Z,72.13
2022-12-05T07:41:58.145Z,76.43
2022-12-05T07:44:26.508Z,64.83
2022-12-05T07:46:54.634Z,62.53
2022-12-05T07:49:22.795Z,59.67
2022-12-05T07:51:52.820Z,56.47
2022-12-05T07:54:21.020Z,56.80
2022-12-05T07:56:49.148Z,57.43
2022-12-05T07:59:17.413Z,58.07
2022-12-05T08:01:45.637Z,60.27
2022-12-05T08:04:15.761Z,59.07
2022-12-05T08:06:44.379Z,61.53
2022-12-05T08:09:14.087Z,64.37
2022-12-05T08:11:42.250Z,53.43
2022-12-05T08:14:11.305Z,65.67
2022-12-05T08:16:39.475Z,58.70
2022-12-05T08:19:12.822Z,60.00
2022-12-05T08:21:41.372Z,56.37
2022-12-05T08:24:10.320Z,56.17
2022-12-05T08:26:40.853Z,49.93
2022-12-05T08:29:12.107Z,45.43
2022-12-05T08:31:43.912Z,51.90
2022-12-05T08:34:14.520Z,47.73
2022-12-05T08:36:43.017Z,48.60
2022-12-05T08:39:15.989Z,44.50
2022-12-05T08:41:46.877Z,41.33
2022-12-05T08:44:17.084Z,41.50
2022-12-05T08:46:47.729Z,42.83
2022-12-05T08:49:16.977Z,40.67
2022-12-05T08:51:45.546Z,37.93
2022-12-05T08:54:14.169Z,41.53
2022-12-05T08:56:42.273Z,38.77
2022-12-05T08:59:11.863Z,40.07
2022-12-05T09:01:40.458Z,42.77
2022-12-05T09:04:09.299Z,43.33
2022-12-05T09:06:39.167Z,44.50
2022-12-05T09:09:11.513Z,41.03
2022-12-05T09:11:46.154Z,38.03
2022-12-05T09:14:16.588Z,36.20
2022-12-05T09:16:46.784Z,36.03
2022-12-05T09:19:17.980Z,35.20
2022-12-05T09:21:46.311Z,37.70
2022-12-05T09:24:15.479Z,34.03
2022-12-05T09:26:44.645Z,32.53
2022-12-05T09:29:18.036Z,32.70
2022-12-05T09:31:48.609Z,31.70
2022-12-05T09:34:18.201Z,35.73
2022-12-05T09:36:51.187Z,28.90
2022-12-05T09:39:20.249Z,28.43
2022-12-05T09:42:30.965Z,27.60
2022-12-05T09:45:14.426Z,25.03
2022-12-05T09:47:56.216Z,25.90
2022-12-05T09:50:28.321Z,27.03
2022-12-05T09:53:28.377Z,25.77
2022-12-05T09:56:04.687Z,25.70
2022-12-05T09:58:43.796Z,23.37
2022-12-05T10:01:32.929Z,23.87
2022-12-05T10:04:23.823Z,24.50
2022-12-05T10:07:07.112Z,21.83
2022-12-05T10:09:58.179Z,24.23
2022-12-05T10:12:52.902Z,22.93
2022-12-05T10:15:32.720Z,23.07
2022-12-05T10:18:11.915Z,23.70
2022-12-05T10:20:52.599Z,23.43
2022-12-05T10:23:56.166Z,24.97
2022-12-05T10:26:18.217Z,19.50
2022-12-05T10:28:57.204Z,20.30
2022-12-05T10:31:31.932Z,22.63
2022-12-05T10:34:12.256Z,21.43
2022-12-05T10:36:40.497Z,22.60
2022-12-05T10:39:11.657Z,21.23
2022-12-05T10:41:41.594Z,20.93
2022-12-05T10:44:11.687Z,21.17
2022-12-05T10:46:39.902Z,22.13
2022-12-05T10:49:13.484Z,19.77
2022-12-05T10:51:42.416Z,22.57
2022-12-05T10:54:21.241Z,20.00
2022-12-05T10:56:51.613Z,20.33
2022-12-05T10:59:23.005Z,21.93
2022-12-05T11:01:56.820Z,23.33
2022-12-05T11:04:30.672Z,23.37
2022-12-05T11:07:02.239Z,22.13
2022-12-05T11:09:33.416Z,24.87
2022-12-05T11:12:19.928Z,22.80
2022-12-05T11:15:06.130Z,23.27
2022-12-05T11:17:37.377Z,23.60
2022-12-05T11:20:38.710Z,24.67
2022-12-05T11:23:27.335Z,21.40
2022-12-05T11:25:57.245Z,25.57
2022-12-05T11:28:37.997Z,22.20
2022-12-05T11:31:23.532Z,19.70
2022-12-05T11:34:06.815Z,23.33
2022-12-05T11:36:43.558Z,24.63
2022-12-05T11:39:14.550Z,21.10
2022-12-05T11:42:09.107Z,25.77
2022-12-05T11:45:07.011Z,22.57
2022-12-05T11:48:10.047Z,23.73
2022-12-05T11:50:47.918Z,22.73
2022-12-05T11:53:54.123Z,24.20
2022-12-05T11:56:38.300Z,22.60
2022-12-05T11:59:35.511Z,20.83
2022-12-05T12:02:25.484Z,22.67
2022-12-05T12:05:04.347Z,22.00
2022-12-05T12:07:58.498Z,22.43
2022-12-05T12:10:45.443Z,21.10
2022-12-05T12:13:33.938Z,23.03
2022-12-05T12:16:16.630Z,22.37
2022-12-05T12:19:07.214Z,23.63
2022-12-05T12:21:54.489Z,19.27
2022-12-05T12:24:40.227Z,21.30
2022-12-05T12:27:23.778Z,19.63
2022-12-05T12:30:07.891Z,21.33
2022-12-05T12:32:46.966Z,20.13
2022-12-05T12:35:31.442Z,19.90
2022-12-05T12:38:43.788Z,20.27
2022-12-05T12:41:30.513Z,20.33
2022-12-05T12:44:24.226Z,22.17
2022-12-05T12:46:58.590Z,19.53
2022-12-05T12:49:55.101Z,20.90
2022-12-05T12:52:28.914Z,19.70
2022-12-05T12:55:19.767Z,21.03
2022-12-05T12:58:07.249Z,18.27
2022-12-05T13:00:57.113Z,18.67
2022-12-05T13:03:36.402Z,19.10
2022-12-05T13:06:13.058Z,19.10
2022-12-05T13:08:47.633Z,18.33
2022-12-05T13:11:19.619Z,18.93
2022-12-05T13:13:53.979Z,18.20
2022-12-05T13:16:29.402Z,21.30
2022-12-05T13:18:58.620Z,19.63
2022-12-05T13:21:28.456Z,22.03
2022-12-05T13:24:03.245Z,20.60
2022-12-05T13:26:34.227Z,20.40
2022-12-05T13:29:05.710Z,19.57
2022-12-05T13:31:42.385Z,19.83
2022-12-05T13:34:46.740Z,20.73
2022-12-05T13:37:41.592Z,20.90
2022-12-05T13:40:46.425Z,19.93
2022-12-05T13:43:19.280Z,21.53
2022-12-05T13:46:07.217Z,19.63
2022-12-05T13:48:41.822Z,20.97
2022-12-05T13:51:21.981Z,21.70
2022-12-05T13:54:01.523Z,17.60
2022-12-05T13:56:51.962Z,20.40
2022-12-05T14:00:01.940Z,21.77
2022-12-05T14:02:51.236Z,21.47
2022-12-05T14:05:54.204Z,22.17
2022-12-05T14:08:58.480Z,22.33
2022-12-05T14:11:26.703Z,23.77
2022-12-05T14:14:00.781Z,22.50
2022-12-05T14:16:46.060Z,20.87
2022-12-05T14:19:51.674Z,22.00
2022-12-05T14:22:51.613Z,21.93
2022-12-05T14:25:51.616Z,22.10
2022-12-05T14:28:47.680Z,21.33
2022-12-05T14:31:39.482Z,18.80
2022-12-05T14:34:22.228Z,21.13
2022-12-05T14:36:57.557Z,21.63
2022-12-05T14:39:43.236Z,21.47
2022-12-05T14:42:28.651Z,20.57
2022-12-05T14:45:02.828Z,18.97
2022-12-05T14:47:35.243Z,21.03
2022-12-05T14:50:38.359Z,23.77
2022-12-05T14:53:40.197Z,21.67
2022-12-05T14:56:28.195Z,24.80
2022-12-05T14:59:05.260Z,25.63
2022-12-05T15:01:44.791Z,21.63
2022-12-05T15:04:24.461Z,23.70
2022-12-05T15:06:58.739Z,22.63
2022-12-05T15:09:57.159Z,23.27
2022-12-05T15:12:39.749Z,23.23
2022-12-05T15:15:17.346Z,26.90
2022-12-05T15:17:51.530Z,22.33
2022-12-05T15:20:40.091Z,22.07
2022-12-05T15:23:40.218Z,24.87
2022-12-05T15:29:18.352Z,26.03
2022-12-05T15:31:49.595Z,25.03
2022-12-05T15:34:24.905Z,24.40
2022-12-05T15:37:04.745Z,24.77
2022-12-05T15:39:54.769Z,23.90
2022-12-05T15:42:29.470Z,24.03
2022-12-05T15:45:23.390Z,26.10
2022-12-05T15:47:56.715Z,27.77
2022-12-05T15:50:34.736Z,23.63
2022-12-05T15:53:11.280Z,20.87
2022-12-05T15:55:47.621Z,21.67
2022-12-05T15:58:26.452Z,20.30
2022-12-05T16:01:02.580Z,25.17
2022-12-05T16:03:42.028Z,21.43
2022-12-05T16:06:20.871Z,21.33
2022-12-05T16:08:52.004Z,20.83
2022-12-05T16:11:21.335Z,19.97
2022-12-05T16:13:55.121Z,20.27
2022-12-05T16:16:29.112Z,23.37
2022-12-05T16:19:00.961Z,25.47
2022-12-05T16:21:37.362Z,23.33
2022-12-05T16:24:16.414Z,27.00
2022-12-05T16:26:57.901Z,27.37
2022-12-05T16:29:28.838Z,23.37
2022-12-05T16:32:01.296Z,25.57
2022-12-05T16:34:34.537Z,26.80
2022-12-05T16:37:02.837Z,26.57
2022-12-05T16:39:31.102Z,24.50
2022-12-05T16:41:59.434Z,30.57
2022-12-05T16:45:03.615Z,29.20
2022-12-05T16:48:00.050Z,35.13
2022-12-05T16:50:34.863Z,32.97
2022-12-05T16:53:22.535Z,37.80
2022-12-05T16:55:51.173Z,36.80
2022-12-05T16:58:25.416Z,33.37
2022-12-05T17:01:01.055Z,29.70
2022-12-05T17:03:35.683Z,32.03
2022-12-05T17:06:04.695Z,37.60
2022-12-05T17:08:32.872Z,32.90
2022-12-05T17:11:03.626Z,40.63
2022-12-05T17:13:32.966Z,38.47
2022-12-05T17:16:01.121Z,35.63
2022-12-05T17:18:31.974Z,35.63
2022-12-05T17:21:03.279Z,35.73
2022-12-05T17:23:31.368Z,31.50
2022-12-05T17:26:00.699Z,29.57
2022-12-05T17:28:28.800Z,27.57
2022-12-05T17:30:57.193Z,26.77
2022-12-05T17:33:26.474Z,26.47
2022-12-05T17:35:55.914Z,30.90
2022-12-05T17:38:24.078Z,29.07
2022-12-05T17:40:52.159Z,29.77
2022-12-05T17:43:25.295Z,29.77
2022-12-05T17:45:54.690Z,36.33
2022-12-05T17:48:23.185Z,31.57
2022-12-05T17:50:51.469Z,28.63
2022-12-05T17:53:22.704Z,34.03
2022-12-05T17:55:51.394Z,31.53
2022-12-05T17:58:19.637Z,27.83
2022-12-05T18:00:49.644Z,29.40
2022-12-05T18:03:19.026Z,27.10
2022-12-05T18:05:48.496Z,26.47
2022-12-05T18:08:17.505Z,25.80
2022-12-05T18:10:49.052Z,28.10
2022-12-05T18:13:18.871Z,25.40
2022-12-05T18:15:49.371Z,23.83
2022-12-05T18:18:19.142Z,25.73
2022-12-05T18:20:47.262Z,22.87
2022-12-05T18:23:17.944Z,23.43
2022-12-05T18:25:58.373Z,24.00
2022-12-05T18:28:27.119Z,25.10
2022-12-05T18:31:06.901Z,22.20
2022-12-05T18:33:35.178Z,23.77
2022-12-05T18:36:09.360Z,24.43
2022-12-05T18:38:38.351Z,22.17
2022-12-05T18:41:08.377Z,23.47
2022-12-05T18:43:37.207Z,21.80
2022-12-05T18:46:06.488Z,27.67
2022-12-05T18:48:42.558Z,23.00
2022-12-05T18:51:16.662Z,23.00
2022-12-05T18:53:51.454Z,23.60
2022-12-05T18:56:24.981Z,21.37
2022-12-05T18:58:56.705Z,22.70
2022-12-05T19:01:25.672Z,22.00
2022-12-05T19:03:54.232Z,23.43
2022-12-05T19:06:26.044Z,21.87
2022-12-05T19:08:56.071Z,22.23
2022-12-05T19:11:27.556Z,22.80
2022-12-05T19:13:57.254Z,22.13
2022-12-05T19:16:26.707Z,21.40
2022-12-05T19:18:56.566Z,22.30
2022-12-05T19:21:26.250Z,21.07
2022-12-05T19:23:55.034Z,21.80
2022-12-05T19:26:25.476Z,18.17
2022-12-05T19:28:53.690Z,20.13
2022-12-05T19:31:24.729Z,19.30
2022-12-05T19:33:55.885Z,20.73
2022-12-05T19:36:27.356Z,18.43
2022-12-05T19:38:57.138Z,17.60
2022-12-05T19:41:29.373Z,18.40
2022-12-05T19:44:00.727Z,17.57
2022-12-05T19:46:31.250Z,18.17
2022-12-05T19:49:02.187Z,17.03
2022-12-05T19:51:30.696Z,18.57
2022-12-05T19:54:00.851Z,16.90
2022-12-05T19:56:32.975Z,17.97
2022-12-05T19:59:01.395Z,17.50
2022-12-05T20:01:31.940Z,16.27
2022-12-05T20:04:03.005Z,15.33
2022-12-05T20:06:34.524Z,17.57
2022-12-05T20:09:03.132Z,15.70
2022-12-05T20:11:32.650Z,17.17
2022-12-05T20:14:02.732Z,16.97
2022-12-05T20:16:31.341Z,17.47
2022-12-05T20:19:00.919Z,16.67
2022-12-05T20:21:32.685Z,16.30
2022-12-05T20:24:02.679Z,15.20
2022-12-05T20:26:35.971Z,14.97
2022-12-05T20:29:06.225Z,14.50
2022-12-05T20:31:36.551Z,14.03
2022-12-05T20:34:05.973Z,16.87
2022-12-05T20:36:36.068Z,15.23
2022-12-05T20:39:07.203Z,13.43
2022-12-05T20:41:36.711Z,13.00
2022-12-05T20:44:07.909Z,14.23
2022-12-05T20:46:36.944Z,14.33
2022-12-05T20:49:05.244Z,14.50
2022-12-05T20:51:35.311Z,15.60
2022-12-05T20:54:07.257Z,15.03
2022-12-05T20:56:36.938Z,14.17
2022-12-05T20:59:08.052Z,15.07
2022-12-05T21:01:38.487Z,14.13
2022-12-05T21:04:09.345Z,14.07
2022-12-05T21:06:40.308Z,14.50
2022-12-05T21:09:15.841Z,14.30
2022-12-05T21:11:46.260Z,15.23
2022-12-05T21:14:14.801Z,14.53
2022-12-05T21:16:42.883Z,15.23
2022-12-05T21:19:11.040Z,16.10
2022-12-05T21:21:39.398Z,14.17
2022-12-05T21:24:08.988Z,15.37
2022-12-05T21:26:37.476Z,14.97
2022-12-05T21:29:10.509Z,14.27
2022-12-05T21:31:41.390Z,14.67
2022-12-05T21:34:15.947Z,13.73
2022-12-05T21:36:45.284Z,13.43
2022-12-05T21:39:13.873Z,14.40
2022-12-05T21:41:42.203Z,14.83
2022-12-05T21:44:11.644Z,16.43
2022-12-05T21:46:39.767Z,15.00
2022-12-05T21:49:08.113Z,16.57
2022-12-05T21:51:36.239Z,15.50
2022-12-05T21:54:04.944Z,15.73
2022-12-05T21:56:33.647Z,14.77
2022-12-05T21:59:01.776Z,15.37
2022-12-05T22:01:31.286Z,15.50
2022-12-05T22:04:00.759Z,14.77
2022-12-05T22:06:29.990Z,15.80
2022-12-05T22:08:58.325Z,16.90
2022-12-05T22:11:26.895Z,17.87
2022-12-05T22:13:55.179Z,15.97
2022-12-05T22:16:29.036Z,15.30
2022-12-05T22:19:02.300Z,17.30
2022-12-05T22:21:31.001Z,14.17
2022-12-05T22:23:59.139Z,16.60
2022-12-05T22:26:28.060Z,15.17
2022-12-05T22:28:57.738Z,14.80
2022-12-05T22:31:26.529Z,19.00
2022-12-05T22:33:54.740Z,15.77
2022-12-05T22:36:24.471Z,14.93
2022-12-05T22:38:54.615Z,16.20
2022-12-05T22:41:25.413Z,16.30
2022-12-05T22:43:57.563Z,16.80
2022-12-05T22:46:27.795Z,16.20
2022-12-05T22:48:56.927Z,17.33
2022-12-05T22:51:27.369Z,14.63
2022-12-05T22:53:55.535Z,16.57
2022-12-05T22:56:25.931Z,15.07
2022-12-05T22:58:56.199Z,15.70
2022-12-05T23:01:27.439Z,17.43
2022-12-05T23:03:58.727Z,17.37
2022-12-05T23:06:30.014Z,16.87
2022-12-05T23:08:59.124Z,16.63
2022-12-05T23:11:29.693Z,17.23
2022-12-05T23:14:02.342Z,18.30
2022-12-05T23:16:33.496Z,17.50
2022-12-05T23:19:05.372Z,17.60
2022-12-05T23:21:37.258Z,16.83
2022-12-05T23:24:09.647Z,16.43
2022-12-05T23:26:40.716Z,17.10
2022-12-05T23:29:09.748Z,16.27
2022-12-05T23:31:37.916Z,15.83
2022-12-05T23:34:06.334Z,15.03
2022-12-05T23:36:36.719Z,17.27
2022-12-05T23:39:05.373Z,16.23
2022-12-05T23:41:33.848Z,14.60
2022-12-05T23:44:02.279Z,14.60
2022-12-05T23:46:30.650Z,13.80
2022-12-05T23:48:58.882Z,13.73
2022-12-05T23:51:29.841Z,14.80
2022-12-05T23:54:02.458Z,14.17
2022-12-05T23:56:33.977Z,15.60
2022-12-05T23:59:03.462Z,15.47
